sensor_id;sensor_type;location;lat;lon;timestamp;P1;durP1;ratioP1;P2;durP2;ratioP2
57085;SDS011;42964;42.910;23.792;2022-08-21T00:00:47;9.52;;;4.95;;
57085;SDS011;42964;42.910;23.792;2022-08-21T00:05:48;8.27;;;4.70;;
57085;SDS011;42964;42.910;23.792;2022-08-21T00:10:48;12.50;;;5.35;;
57085;SDS011;42964;42.910;23.792;2022-08-21T00:15:49;10.07;;;5.38;;
57085;SDS011;42964;42.910;23.792;2022-08-21T00:20:48;12.20;;;6.55;;
57085;SDS011;42964;42.910;23.792;2022-08-21T00:25:47;12.85;;;6.63;;
57085;SDS011;42964;42.910;23.792;2022-08-21T00:30:46;13.50;;;8.18;;
57085;SDS011;42964;42.910;23.792;2022-08-21T00:35:45;11.20;;;7.72;;
57085;SDS011;42964;42.910;23.792;2022-08-21T00:40:55;11.77;;;8.27;;
57085;SDS011;42964;42.910;23.792;2022-08-21T00:45:58;11.55;;;6.82;;
57085;SDS011;42964;42.910;23.792;2022-08-21T00:51:03;11.35;;;6.60;;
57085;SDS011;42964;42.910;23.792;2022-08-21T00:56:06;10.82;;;6.72;;
57085;SDS011;42964;42.910;23.792;2022-08-21T01:01:07;10.88;;;6.40;;
57085;SDS011;42964;42.910;23.792;2022-08-21T01:06:07;13.07;;;6.10;;
57085;SDS011;42964;42.910;23.792;2022-08-21T01:11:07;11.48;;;5.40;;
57085;SDS011;42964;42.910;23.792;2022-08-21T01:16:08;9.15;;;4.40;;
57085;SDS011;42964;42.910;23.792;2022-08-21T01:21:09;8.68;;;4.43;;
57085;SDS011;42964;42.910;23.792;2022-08-21T01:26:32;6.80;;;4.80;;
57085;SDS011;42964;42.910;23.792;2022-08-21T01:31:33;11.20;;;4.55;;
57085;SDS011;42964;42.910;23.792;2022-08-21T01:36:32;7.70;;;4.72;;
57085;SDS011;42964;42.910;23.792;2022-08-21T01:41:31;10.57;;;4.90;;
57085;SDS011;42964;42.910;23.792;2022-08-21T01:46:30;12.07;;;5.70;;
57085;SDS011;42964;42.910;23.792;2022-08-21T01:51:29;10.82;;;6.40;;
57085;SDS011;42964;42.910;23.792;2022-08-21T01:56:28;12.00;;;6.43;;
57085;SDS011;42964;42.910;23.792;2022-08-21T02:01:27;11.00;;;6.25;;
57085;SDS011;42964;42.910;23.792;2022-08-21T02:06:26;11.50;;;6.07;;
57085;SDS011;42964;42.910;23.792;2022-08-21T02:11:26;13.35;;;6.63;;
57085;SDS011;42964;42.910;23.792;2022-08-21T02:16:25;10.90;;;6.00;;
57085;SDS011;42964;42.910;23.792;2022-08-21T02:21:24;11.35;;;6.05;;
57085;SDS011;42964;42.910;23.792;2022-08-21T02:26:24;11.02;;;6.97;;
57085;SDS011;42964;42.910;23.792;2022-08-21T02:31:23;14.65;;;6.63;;
57085;SDS011;42964;42.910;23.792;2022-08-21T02:36:23;10.70;;;6.55;;
57085;SDS011;42964;42.910;23.792;2022-08-21T02:41:22;11.00;;;6.65;;
57085;SDS011;42964;42.910;23.792;2022-08-21T02:46:21;14.85;;;6.85;;
57085;SDS011;42964;42.910;23.792;2022-08-21T02:51:20;9.98;;;5.53;;
57085;SDS011;42964;42.910;23.792;2022-08-21T02:56:21;12.27;;;6.00;;
57085;SDS011;42964;42.910;23.792;2022-08-21T03:01:20;11.75;;;6.65;;
57085;SDS011;42964;42.910;23.792;2022-08-21T03:06:20;12.45;;;6.03;;
57085;SDS011;42964;42.910;23.792;2022-08-21T03:11:21;11.18;;;5.75;;
57085;SDS011;42964;42.910;23.792;2022-08-21T03:16:20;12.30;;;6.75;;
57085;SDS011;42964;42.910;23.792;2022-08-21T03:21:19;11.38;;;6.47;;
57085;SDS011;42964;42.910;23.792;2022-08-21T03:26:18;11.25;;;6.63;;
57085;SDS011;42964;42.910;23.792;2022-08-21T03:31:17;11.48;;;6.72;;
57085;SDS011;42964;42.910;23.792;2022-08-21T03:36:16;10.38;;;6.13;;
57085;SDS011;42964;42.910;23.792;2022-08-21T03:41:15;12.48;;;6.53;;
57085;SDS011;42964;42.910;23.792;2022-08-21T03:46:14;11.52;;;6.10;;
57085;SDS011;42964;42.910;23.792;2022-08-21T03:51:13;13.48;;;5.93;;
57085;SDS011;42964;42.910;23.792;2022-08-21T03:56:14;14.57;;;6.70;;
57085;SDS011;42964;42.910;23.792;2022-08-21T04:01:14;12.05;;;6.03;;
57085;SDS011;42964;42.910;23.792;2022-08-21T04:06:13;11.35;;;6.70;;
57085;SDS011;42964;42.910;23.792;2022-08-21T04:11:12;11.48;;;6.68;;
57085;SDS011;42964;42.910;23.792;2022-08-21T04:16:13;11.43;;;6.43;;
57085;SDS011;42964;42.910;23.792;2022-08-21T04:21:12;12.52;;;6.53;;
57085;SDS011;42964;42.910;23.792;2022-08-21T04:26:12;9.95;;;6.25;;
57085;SDS011;42964;42.910;23.792;2022-08-21T04:31:11;12.10;;;6.47;;
57085;SDS011;42964;42.910;23.792;2022-08-21T04:36:10;12.85;;;7.18;;
57085;SDS011;42964;42.910;23.792;2022-08-21T04:41:09;11.27;;;6.28;;
57085;SDS011;42964;42.910;23.792;2022-08-21T04:46:08;10.60;;;6.38;;
57085;SDS011;42964;42.910;23.792;2022-08-21T04:51:09;11.52;;;6.32;;
57085;SDS011;42964;42.910;23.792;2022-08-21T04:56:33;12.07;;;6.05;;
57085;SDS011;42964;42.910;23.792;2022-08-21T05:01:38;13.77;;;6.28;;
57085;SDS011;42964;42.910;23.792;2022-08-21T05:06:39;11.93;;;5.90;;
57085;SDS011;42964;42.910;23.792;2022-08-21T05:11:42;11.02;;;6.03;;
57085;SDS011;42964;42.910;23.792;2022-08-21T05:16:41;11.50;;;6.22;;
57085;SDS011;42964;42.910;23.792;2022-08-21T05:21:43;14.50;;;6.75;;
57085;SDS011;42964;42.910;23.792;2022-08-21T05:26:43;13.15;;;7.88;;
57085;SDS011;42964;42.910;23.792;2022-08-21T05:31:43;14.45;;;8.57;;
57085;SDS011;42964;42.910;23.792;2022-08-21T05:36:42;15.70;;;8.57;;
57085;SDS011;42964;42.910;23.792;2022-08-21T05:41:41;12.40;;;7.63;;
57085;SDS011;42964;42.910;23.792;2022-08-21T05:46:40;15.70;;;8.68;;
57085;SDS011;42964;42.910;23.792;2022-08-21T05:51:40;13.77;;;7.88;;
57085;SDS011;42964;42.910;23.792;2022-08-21T05:56:40;13.90;;;6.95;;
57085;SDS011;42964;42.910;23.792;2022-08-21T06:01:42;14.35;;;7.25;;
57085;SDS011;42964;42.910;23.792;2022-08-21T06:06:41;14.98;;;7.03;;
57085;SDS011;42964;42.910;23.792;2022-08-21T06:11:40;15.20;;;8.98;;
57085;SDS011;42964;42.910;23.792;2022-08-21T06:16:39;13.68;;;7.82;;
57085;SDS011;42964;42.910;23.792;2022-08-21T06:21:38;14.10;;;8.02;;
57085;SDS011;42964;42.910;23.792;2022-08-21T06:26:37;14.90;;;8.07;;
57085;SDS011;42964;42.910;23.792;2022-08-21T06:31:38;14.25;;;7.38;;
57085;SDS011;42964;42.910;23.792;2022-08-21T06:36:37;16.33;;;9.85;;
57085;SDS011;42964;42.910;23.792;2022-08-21T06:41:37;9.68;;;5.78;;
57085;SDS011;42964;42.910;23.792;2022-08-21T06:46:36;9.52;;;4.85;;
57085;SDS011;42964;42.910;23.792;2022-08-21T06:51:36;12.10;;;5.32;;
57085;SDS011;42964;42.910;23.792;2022-08-21T06:56:35;14.60;;;5.47;;
57085;SDS011;42964;42.910;23.792;2022-08-21T07:01:36;9.48;;;5.03;;
57085;SDS011;42964;42.910;23.792;2022-08-21T07:06:35;11.85;;;4.97;;
57085;SDS011;42964;42.910;23.792;2022-08-21T07:11:34;11.02;;;5.78;;
57085;SDS011;42964;42.910;23.792;2022-08-21T07:16:33;11.25;;;5.95;;
57085;SDS011;42964;42.910;23.792;2022-08-21T07:21:32;11.82;;;5.57;;
57085;SDS011;42964;42.910;23.792;2022-08-21T07:26:32;10.75;;;5.28;;
57085;SDS011;42964;42.910;23.792;2022-08-21T07:31:31;9.90;;;5.18;;
57085;SDS011;42964;42.910;23.792;2022-08-21T07:36:30;11.70;;;5.68;;
57085;SDS011;42964;42.910;23.792;2022-08-21T07:41:29;8.57;;;4.93;;
57085;SDS011;42964;42.910;23.792;2022-08-21T07:46:28;9.43;;;5.30;;
57085;SDS011;42964;42.910;23.792;2022-08-21T07:51:27;10.88;;;5.22;;
57085;SDS011;42964;42.910;23.792;2022-08-21T07:56:27;9.93;;;5.35;;
57085;SDS011;42964;42.910;23.792;2022-08-21T08:01:28;10.85;;;5.30;;
57085;SDS011;42964;42.910;23.792;2022-08-21T08:06:27;9.95;;;5.47;;
57085;SDS011;42964;42.910;23.792;2022-08-21T08:11:26;9.68;;;5.38;;
57085;SDS011;42964;42.910;23.792;2022-08-21T08:16:26;13.88;;;7.65;;
57085;SDS011;42964;42.910;23.792;2022-08-21T08:21:25;9.27;;;5.75;;
57085;SDS011;42964;42.910;23.792;2022-08-21T08:26:25;12.10;;;6.30;;
57085;SDS011;42964;42.910;23.792;2022-08-21T08:31:24;15.98;;;6.25;;
57085;SDS011;42964;42.910;23.792;2022-08-21T08:36:30;11.98;;;6.32;;
57085;SDS011;42964;42.910;23.792;2022-08-21T08:41:32;13.52;;;6.30;;
57085;SDS011;42964;42.910;23.792;2022-08-21T08:46:34;11.18;;;6.30;;
57085;SDS011;42964;42.910;23.792;2022-08-21T08:57:25;9.65;;;5.40;;
57085;SDS011;42964;42.910;23.792;2022-08-21T09:02:24;11.23;;;5.75;;
57085;SDS011;42964;42.910;23.792;2022-08-21T09:12:39;12.63;;;6.03;;
57085;SDS011;42964;42.910;23.792;2022-08-21T09:24:13;12.43;;;5.57;;
57085;SDS011;42964;42.910;23.792;2022-08-21T09:29:21;10.30;;;5.15;;
57085;SDS011;42964;42.910;23.792;2022-08-21T09:34:28;12.38;;;5.18;;
57085;SDS011;42964;42.910;23.792;2022-08-21T09:39:30;9.45;;;5.10;;
57085;SDS011;42964;42.910;23.792;2022-08-21T09:44:38;10.63;;;5.40;;
57085;SDS011;42964;42.910;23.792;2022-08-21T09:49:42;10.40;;;5.20;;
57085;SDS011;42964;42.910;23.792;2022-08-21T09:54:41;8.75;;;4.82;;
57085;SDS011;42964;42.910;23.792;2022-08-21T09:59:45;8.43;;;4.50;;
57085;SDS011;42964;42.910;23.792;2022-08-21T10:04:49;9.00;;;4.88;;
57085;SDS011;42964;42.910;23.792;2022-08-21T10:10:13;10.50;;;4.28;;
57085;SDS011;42964;42.910;23.792;2022-08-21T10:15:31;11.70;;;4.78;;
57085;SDS011;42964;42.910;23.792;2022-08-21T10:20:47;10.88;;;5.00;;
57085;SDS011;42964;42.910;23.792;2022-08-21T10:25:57;9.63;;;4.88;;
57085;SDS011;42964;42.910;23.792;2022-08-21T10:42:12;10.88;;;4.72;;
57085;SDS011;42964;42.910;23.792;2022-08-21T10:47:30;9.98;;;4.68;;
57085;SDS011;42964;42.910;23.792;2022-08-21T11:04:14;8.32;;;5.18;;
57085;SDS011;42964;42.910;23.792;2022-08-21T11:09:19;11.13;;;5.78;;
57085;SDS011;42964;42.910;23.792;2022-08-21T11:19:37;8.75;;;6.53;;
57085;SDS011;42964;42.910;23.792;2022-08-21T11:24:50;9.07;;;5.72;;
57085;SDS011;42964;42.910;23.792;2022-08-21T11:29:59;10.65;;;5.75;;
57085;SDS011;42964;42.910;23.792;2022-08-21T11:35:20;7.10;;;4.80;;
57085;SDS011;42964;42.910;23.792;2022-08-21T11:46:13;12.00;;;5.40;;
57085;SDS011;42964;42.910;23.792;2022-08-21T11:57:04;9.57;;;5.35;;
57085;SDS011;42964;42.910;23.792;2022-08-21T12:02:16;9.30;;;5.28;;
57085;SDS011;42964;42.910;23.792;2022-08-21T12:07:29;10.07;;;6.20;;
57085;SDS011;42964;42.910;23.792;2022-08-21T12:12:29;14.80;;;7.18;;
57085;SDS011;42964;42.910;23.792;2022-08-21T12:17:37;13.50;;;6.28;;
57085;SDS011;42964;42.910;23.792;2022-08-21T12:22:38;11.90;;;5.85;;
57085;SDS011;42964;42.910;23.792;2022-08-21T12:27:44;9.27;;;5.60;;
57085;SDS011;42964;42.910;23.792;2022-08-21T12:32:53;7.93;;;5.47;;
57085;SDS011;42964;42.910;23.792;2022-08-21T12:38:14;11.38;;;5.40;;
57085;SDS011;42964;42.910;23.792;2022-08-21T12:43:19;9.85;;;5.43;;
57085;SDS011;42964;42.910;23.792;2022-08-21T12:48:27;10.15;;;5.68;;
57085;SDS011;42964;42.910;23.792;2022-08-21T12:53:33;8.75;;;5.50;;
57085;SDS011;42964;42.910;23.792;2022-08-21T12:58:46;9.33;;;5.33;;
57085;SDS011;42964;42.910;23.792;2022-08-21T13:08:47;9.90;;;6.05;;
57085;SDS011;42964;42.910;23.792;2022-08-21T13:13:51;10.73;;;5.82;;
57085;SDS011;42964;42.910;23.792;2022-08-21T13:18:54;10.23;;;5.53;;
57085;SDS011;42964;42.910;23.792;2022-08-21T13:29:09;11.80;;;5.35;;
57085;SDS011;42964;42.910;23.792;2022-08-21T13:34:10;8.68;;;5.70;;
57085;SDS011;42964;42.910;23.792;2022-08-21T13:39:11;11.02;;;6.43;;
57085;SDS011;42964;42.910;23.792;2022-08-21T13:44:18;11.05;;;5.90;;
57085;SDS011;42964;42.910;23.792;2022-08-21T13:49:31;11.57;;;5.88;;
57085;SDS011;42964;42.910;23.792;2022-08-21T13:54:34;10.23;;;5.53;;
57085;SDS011;42964;42.910;23.792;2022-08-21T13:59:35;8.70;;;6.10;;
57085;SDS011;42964;42.910;23.792;2022-08-21T14:04:35;9.70;;;7.22;;
57085;SDS011;42964;42.910;23.792;2022-08-21T14:09:42;9.93;;;6.90;;
57085;SDS011;42964;42.910;23.792;2022-08-21T14:14:42;11.30;;;7.07;;
57085;SDS011;42964;42.910;23.792;2022-08-21T14:19:43;12.00;;;7.18;;
57085;SDS011;42964;42.910;23.792;2022-08-21T14:24:45;12.93;;;7.75;;
57085;SDS011;42964;42.910;23.792;2022-08-21T14:29:44;10.40;;;6.97;;
57085;SDS011;42964;42.910;23.792;2022-08-21T14:34:43;8.82;;;6.78;;
57085;SDS011;42964;42.910;23.792;2022-08-21T14:39:42;11.95;;;6.55;;
57085;SDS011;42964;42.910;23.792;2022-08-21T14:44:41;11.15;;;7.85;;
57085;SDS011;42964;42.910;23.792;2022-08-21T14:49:40;14.20;;;6.97;;
57085;SDS011;42964;42.910;23.792;2022-08-21T14:54:39;12.25;;;7.07;;
57085;SDS011;42964;42.910;23.792;2022-08-21T14:59:38;13.10;;;7.20;;
57085;SDS011;42964;42.910;23.792;2022-08-21T15:04:38;10.10;;;6.82;;
57085;SDS011;42964;42.910;23.792;2022-08-21T15:09:37;11.93;;;7.32;;
57085;SDS011;42964;42.910;23.792;2022-08-21T15:14:36;11.60;;;6.88;;
57085;SDS011;42964;42.910;23.792;2022-08-21T15:19:38;9.55;;;6.45;;
57085;SDS011;42964;42.910;23.792;2022-08-21T15:24:38;10.65;;;7.32;;
57085;SDS011;42964;42.910;23.792;2022-08-21T15:29:37;12.15;;;7.28;;
57085;SDS011;42964;42.910;23.792;2022-08-21T15:34:36;11.10;;;6.65;;
57085;SDS011;42964;42.910;23.792;2022-08-21T15:39:35;10.07;;;6.53;;
57085;SDS011;42964;42.910;23.792;2022-08-21T15:44:34;10.88;;;6.95;;
57085;SDS011;42964;42.910;23.792;2022-08-21T15:49:33;12.20;;;6.85;;
57085;SDS011;42964;42.910;23.792;2022-08-21T15:54:32;15.55;;;7.68;;
57085;SDS011;42964;42.910;23.792;2022-08-21T15:59:32;11.32;;;6.75;;
57085;SDS011;42964;42.910;23.792;2022-08-21T16:04:38;11.85;;;7.00;;
57085;SDS011;42964;42.910;23.792;2022-08-21T16:09:37;9.52;;;6.28;;
57085;SDS011;42964;42.910;23.792;2022-08-21T16:14:37;11.05;;;7.30;;
57085;SDS011;42964;42.910;23.792;2022-08-21T16:19:37;10.68;;;7.03;;
57085;SDS011;42964;42.910;23.792;2022-08-21T16:24:36;11.30;;;7.13;;
57085;SDS011;42964;42.910;23.792;2022-08-21T16:29:36;9.38;;;6.18;;
57085;SDS011;42964;42.910;23.792;2022-08-21T16:34:35;11.60;;;6.97;;
57085;SDS011;42964;42.910;23.792;2022-08-21T16:39:37;10.55;;;7.03;;
57085;SDS011;42964;42.910;23.792;2022-08-21T16:44:36;12.63;;;6.70;;
57085;SDS011;42964;42.910;23.792;2022-08-21T16:49:35;14.43;;;7.90;;
57085;SDS011;42964;42.910;23.792;2022-08-21T16:54:34;11.05;;;7.65;;
57085;SDS011;42964;42.910;23.792;2022-08-21T16:59:33;13.80;;;7.15;;
57085;SDS011;42964;42.910;23.792;2022-08-21T17:04:33;12.18;;;6.78;;
57085;SDS011;42964;42.910;23.792;2022-08-21T17:09:32;14.40;;;7.10;;
57085;SDS011;42964;42.910;23.792;2022-08-21T17:14:31;13.75;;;8.40;;
57085;SDS011;42964;42.910;23.792;2022-08-21T17:19:30;12.18;;;6.95;;
57085;SDS011;42964;42.910;23.792;2022-08-21T17:24:31;11.85;;;7.63;;
57085;SDS011;42964;42.910;23.792;2022-08-21T17:29:32;11.52;;;7.18;;
57085;SDS011;42964;42.910;23.792;2022-08-21T17:34:33;10.82;;;6.53;;
57085;SDS011;42964;42.910;23.792;2022-08-21T17:39:32;9.60;;;6.50;;
57085;SDS011;42964;42.910;23.792;2022-08-21T17:44:32;10.07;;;7.07;;
57085;SDS011;42964;42.910;23.792;2022-08-21T17:49:34;9.75;;;6.40;;
57085;SDS011;42964;42.910;23.792;2022-08-21T17:54:34;9.80;;;5.63;;
57085;SDS011;42964;42.910;23.792;2022-08-21T17:59:34;12.15;;;5.88;;
57085;SDS011;42964;42.910;23.792;2022-08-21T18:04:33;9.15;;;5.22;;
57085;SDS011;42964;42.910;23.792;2022-08-21T18:09:32;7.63;;;5.05;;
57085;SDS011;42964;42.910;23.792;2022-08-21T18:14:32;7.28;;;4.38;;
57085;SDS011;42964;42.910;23.792;2022-08-21T18:19:33;8.02;;;5.15;;
57085;SDS011;42964;42.910;23.792;2022-08-21T18:24:35;9.23;;;5.18;;
57085;SDS011;42964;42.910;23.792;2022-08-21T18:29:34;7.28;;;5.03;;
57085;SDS011;42964;42.910;23.792;2022-08-21T18:34:37;7.18;;;5.03;;
57085;SDS011;42964;42.910;23.792;2022-08-21T18:39:39;8.13;;;4.32;;
57085;SDS011;42964;42.910;23.792;2022-08-21T18:44:39;7.45;;;4.82;;
57085;SDS011;42964;42.910;23.792;2022-08-21T18:49:40;5.40;;;3.92;;
57085;SDS011;42964;42.910;23.792;2022-08-21T18:54:39;6.53;;;4.03;;
57085;SDS011;42964;42.910;23.792;2022-08-21T18:59:38;6.03;;;4.40;;
57085;SDS011;42964;42.910;23.792;2022-08-21T19:04:39;5.95;;;3.92;;
57085;SDS011;42964;42.910;23.792;2022-08-21T19:09:39;8.38;;;4.30;;
57085;SDS011;42964;42.910;23.792;2022-08-21T19:14:39;8.75;;;4.60;;
57085;SDS011;42964;42.910;23.792;2022-08-21T19:19:38;8.40;;;5.45;;
57085;SDS011;42964;42.910;23.792;2022-08-21T19:24:37;9.13;;;5.10;;
57085;SDS011;42964;42.910;23.792;2022-08-21T19:29:38;6.95;;;4.72;;
57085;SDS011;42964;42.910;23.792;2022-08-21T19:34:37;7.07;;;5.38;;
57085;SDS011;42964;42.910;23.792;2022-08-21T19:39:38;10.00;;;6.18;;
57085;SDS011;42964;42.910;23.792;2022-08-21T19:44:37;9.73;;;5.53;;
57085;SDS011;42964;42.910;23.792;2022-08-21T19:49:37;8.10;;;5.53;;
57085;SDS011;42964;42.910;23.792;2022-08-21T19:54:39;7.57;;;5.30;;
57085;SDS011;42964;42.910;23.792;2022-08-21T19:59:39;8.90;;;5.25;;
57085;SDS011;42964;42.910;23.792;2022-08-21T20:04:39;9.10;;;4.97;;
57085;SDS011;42964;42.910;23.792;2022-08-21T20:09:38;8.30;;;5.22;;
57085;SDS011;42964;42.910;23.792;2022-08-21T20:14:44;7.28;;;5.05;;
57085;SDS011;42964;42.910;23.792;2022-08-21T20:19:44;8.23;;;4.35;;
57085;SDS011;42964;42.910;23.792;2022-08-21T20:24:45;9.30;;;4.80;;
57085;SDS011;42964;42.910;23.792;2022-08-21T20:29:44;9.70;;;4.70;;
57085;SDS011;42964;42.910;23.792;2022-08-21T20:34:43;6.35;;;3.92;;
57085;SDS011;42964;42.910;23.792;2022-08-21T20:39:42;7.35;;;4.65;;
57085;SDS011;42964;42.910;23.792;2022-08-21T20:44:41;6.50;;;4.20;;
57085;SDS011;42964;42.910;23.792;2022-08-21T20:49:43;12.52;;;5.38;;
57085;SDS011;42964;42.910;23.792;2022-08-21T21:00:26;9.25;;;5.65;;
57085;SDS011;42964;42.910;23.792;2022-08-21T21:10:42;11.70;;;6.38;;
57085;SDS011;42964;42.910;23.792;2022-08-21T21:16:13;12.63;;;7.07;;
57085;SDS011;42964;42.910;23.792;2022-08-21T21:26:30;15.10;;;7.57;;
57085;SDS011;42964;42.910;23.792;2022-08-21T21:31:44;17.15;;;8.10;;
57085;SDS011;42964;42.910;23.792;2022-08-21T21:36:48;15.35;;;8.05;;
57085;SDS011;42964;42.910;23.792;2022-08-21T22:14:16;13.52;;;8.98;;
57085;SDS011;42964;42.910;23.792;2022-08-21T22:19:24;14.43;;;7.72;;
57085;SDS011;42964;42.910;23.792;2022-08-21T22:24:30;15.77;;;8.60;;
57085;SDS011;42964;42.910;23.792;2022-08-21T22:35:07;16.85;;;9.82;;
57085;SDS011;42964;42.910;23.792;2022-08-21T22:40:14;16.92;;;10.23;;
57085;SDS011;42964;42.910;23.792;2022-08-21T22:45:23;18.48;;;9.98;;
57085;SDS011;42964;42.910;23.792;2022-08-21T22:55:24;17.52;;;9.63;;
57085;SDS011;42964;42.910;23.792;2022-08-21T23:05:57;19.25;;;9.23;;
57085;SDS011;42964;42.910;23.792;2022-08-21T23:11:03;20.20;;;9.68;;
57085;SDS011;42964;42.910;23.792;2022-08-21T23:22:32;19.75;;;10.50;;
57085;SDS011;42964;42.910;23.792;2022-08-21T23:37:59;19.27;;;10.00;;
57085;SDS011;42964;42.910;23.792;2022-08-21T23:53:46;18.00;;;10.23;;
